createdAt,value
2022-10-11T00:03:24.308Z,6.30
2022-10-11T00:08:26.134Z,6.00
2022-10-11T00:13:28.875Z,6.00
2022-10-11T00:18:30.706Z,5.50
2022-10-11T00:23:33.309Z,5.90
2022-10-11T00:28:36.279Z,5.82
2022-10-11T00:33:38.208Z,5.38
2022-10-11T00:38:40.090Z,5.28
2022-10-11T00:43:42.610Z,6.03
2022-10-11T00:49:15.820Z,5.47
2022-10-11T00:54:22.406Z,5.60
2022-10-11T00:59:29.453Z,5.63
2022-10-11T01:04:31.237Z,5.85
2022-10-11T01:09:33.761Z,4.50
2022-10-11T01:14:56.764Z,4.85
2022-10-11T01:20:13.750Z,5.30
2022-10-11T01:25:24.617Z,5.03
2022-10-11T01:30:34.432Z,4.78
2022-10-11T01:35:52.306Z,5.45
2022-10-11T01:41:04.074Z,6.05
2022-10-11T01:46:09.482Z,5.57
2022-10-11T01:51:11.273Z,5.20
2022-10-11T01:56:22.362Z,5.57
2022-10-11T02:01:43.796Z,5.85
2022-10-11T02:07:07.366Z,5.22
2022-10-11T02:12:23.474Z,4.85
2022-10-11T02:17:31.217Z,4.82
2022-10-11T02:22:38.405Z,6.03
2022-10-11T02:27:41.624Z,5.53
2022-10-11T02:32:46.431Z,4.72
2022-10-11T02:38:05.629Z,4.95
2022-10-11T02:43:19.533Z,5.00
2022-10-11T02:48:21.504Z,5.05
2022-10-11T02:53:24.425Z,4.75
2022-10-11T02:58:26.280Z,5.55
2022-10-11T03:03:28.107Z,6.03
2022-10-11T03:08:30.266Z,5.28
2022-10-11T03:13:32.030Z,4.70
2022-10-11T03:18:34.038Z,4.38
2022-10-11T03:23:36.008Z,5.55
2022-10-11T03:28:37.856Z,4.53
2022-10-11T03:33:39.798Z,4.88
2022-10-11T03:38:41.778Z,4.97
2022-10-11T03:43:44.214Z,4.50
2022-10-11T03:48:45.992Z,4.57
2022-10-11T03:53:47.813Z,4.55
2022-10-11T03:58:49.601Z,4.97
2022-10-11T04:03:54.590Z,5.30
2022-10-11T04:08:56.366Z,5.05
2022-10-11T04:13:58.363Z,5.13
2022-10-11T04:19:00.177Z,5.95
2022-10-11T04:24:02.037Z,7.28
2022-10-11T04:29:04.502Z,7.32
2022-10-11T04:34:06.290Z,8.57
2022-10-11T04:39:08.211Z,6.30
2022-10-11T04:44:10.038Z,5.40
2022-10-11T04:49:11.944Z,6.55
2022-10-11T04:54:13.845Z,7.95
2022-10-11T04:59:15.711Z,9.32
2022-10-11T05:04:17.465Z,11.13
2022-10-11T05:09:19.303Z,11.98
2022-10-11T05:14:21.118Z,10.98
2022-10-11T05:19:23.018Z,19.38
2022-10-11T05:24:24.805Z,16.73
2022-10-11T05:29:27.036Z,12.07
2022-10-11T05:34:28.861Z,9.80
2022-10-11T05:39:30.757Z,13.38
2022-10-11T05:44:32.565Z,13.43
2022-10-11T05:49:34.347Z,12.32
2022-10-11T05:54:36.226Z,13.85
2022-10-11T05:59:38.084Z,17.85
2022-10-11T06:04:40.155Z,24.00
2022-10-11T06:09:41.953Z,19.33
2022-10-11T06:14:44.571Z,20.42
2022-10-11T06:19:46.410Z,19.63
2022-10-11T06:24:48.231Z,18.48
2022-10-11T06:29:50.032Z,17.58
2022-10-11T06:34:51.861Z,19.40
2022-10-11T06:39:53.724Z,18.00
2022-10-11T06:44:55.539Z,18.83
2022-10-11T06:49:57.430Z,19.80
2022-10-11T06:54:59.225Z,21.42
2022-10-11T07:00:01.050Z,18.63
2022-10-11T07:05:02.865Z,21.42
2022-10-11T07:10:05.050Z,17.00
2022-10-11T07:15:07.377Z,18.52
2022-10-11T07:20:09.898Z,20.60
2022-10-11T07:25:11.685Z,18.90
2022-10-11T07:30:13.545Z,21.40
2022-10-11T07:35:15.450Z,18.05
2022-10-11T07:40:17.332Z,17.00
2022-10-11T07:45:19.230Z,15.40
2022-10-11T07:50:21.121Z,16.00
2022-10-11T07:55:22.869Z,15.63
2022-10-11T08:00:24.674Z,18.38
2022-10-11T08:05:26.678Z,15.18
2022-10-11T08:10:28.765Z,16.95
2022-10-11T08:15:30.564Z,18.00
2022-10-11T08:20:33.274Z,18.42
2022-10-11T08:25:43.982Z,18.50
2022-10-11T08:30:55.087Z,14.77
2022-10-11T08:35:57.465Z,13.70
2022-10-11T08:41:00.736Z,12.30
2022-10-11T08:46:05.005Z,12.98
2022-10-11T08:51:34.194Z,13.13
2022-10-11T08:56:39.759Z,14.80
2022-10-11T09:01:56.886Z,15.73
2022-10-11T09:07:17.446Z,17.33
2022-10-11T09:12:34.239Z,18.02
2022-10-11T09:17:56.581Z,16.20
2022-10-11T09:23:15.128Z,17.70
2022-10-11T09:28:22.881Z,20.48
2022-10-11T09:33:38.880Z,29.45
2022-10-11T09:38:45.945Z,19.33
2022-10-11T09:43:51.369Z,17.33
2022-10-11T09:48:56.451Z,17.98
2022-10-11T09:54:04.868Z,16.95
2022-10-11T09:59:27.237Z,20.25
2022-10-11T10:04:29.075Z,18.77
2022-10-11T10:09:31.089Z,16.15
2022-10-11T10:14:32.910Z,16.48
2022-10-11T10:19:56.141Z,17.90
2022-10-11T10:25:01.817Z,16.83
2022-10-11T10:30:09.833Z,17.60
2022-10-11T10:35:33.544Z,14.70
2022-10-11T10:40:41.306Z,13.15
2022-10-11T10:46:11.998Z,15.43
2022-10-11T10:51:32.192Z,14.43
2022-10-11T10:56:43.384Z,13.38
2022-10-11T11:01:52.312Z,12.55
2022-10-11T11:06:58.130Z,13.82
2022-10-11T11:12:15.165Z,12.50
2022-10-11T11:17:25.802Z,11.98
2022-10-11T11:22:55.940Z,11.75
2022-10-11T11:28:12.743Z,11.85
2022-10-11T11:33:21.205Z,13.00
2022-10-11T11:38:47.716Z,13.40
2022-10-11T11:43:57.140Z,10.15
2022-10-11T11:49:02.622Z,12.20
2022-10-11T11:54:21.749Z,9.77
2022-10-11T11:59:29.916Z,9.55
2022-10-11T12:04:38.774Z,12.75
2022-10-11T12:09:43.594Z,13.57
2022-10-11T12:14:45.426Z,11.13
2022-10-11T12:20:08.169Z,13.48
2022-10-11T12:25:11.216Z,12.32
2022-10-11T12:30:42.594Z,11.77
2022-10-11T12:36:22.285Z,11.73
2022-10-11T12:41:50.052Z,10.88
2022-10-11T12:46:53.655Z,13.03
2022-10-11T12:52:03.049Z,11.00
2022-10-11T12:57:29.752Z,10.15
2022-10-11T13:02:44.579Z,9.88
2022-10-11T13:07:46.800Z,7.55
2022-10-11T13:12:49.308Z,9.35
2022-10-11T13:17:54.218Z,8.85
2022-10-11T13:22:57.177Z,9.90
2022-10-11T13:28:01.697Z,8.57
2022-10-11T13:33:08.667Z,7.40
2022-10-11T13:38:37.061Z,8.90
2022-10-11T13:43:40.658Z,7.65
2022-10-11T13:48:42.536Z,8.82
2022-10-11T13:54:16.779Z,11.82
2022-10-11T13:59:24.631Z,10.07
2022-10-11T14:04:29.698Z,11.75
2022-10-11T14:09:38.578Z,10.02
2022-10-11T14:14:42.803Z,9.50
2022-10-11T14:19:46.806Z,11.05
2022-10-11T14:24:48.901Z,10.43
2022-10-11T14:30:19.847Z,12.35
2022-10-11T14:35:27.452Z,12.93
2022-10-11T14:40:31.514Z,12.68
2022-10-11T14:45:33.307Z,13.13
2022-10-11T14:50:51.728Z,12.85
2022-10-11T14:55:53.934Z,12.82
2022-10-11T15:00:55.730Z,14.68
2022-10-11T15:05:57.562Z,13.00
2022-10-11T15:10:59.311Z,14.13
2022-10-11T15:16:03.223Z,14.38
2022-10-11T15:21:05.566Z,13.05
2022-10-11T15:26:07.866Z,13.25
2022-10-11T15:31:11.218Z,12.57
2022-10-11T15:36:16.425Z,13.25
2022-10-11T15:41:20.160Z,44.80
2022-10-11T15:46:22.788Z,17.48
2022-10-11T15:51:24.629Z,15.38
2022-10-11T15:56:29.330Z,12.05
2022-10-11T16:01:34.877Z,12.85
2022-10-11T16:06:36.785Z,11.15
2022-10-11T16:11:38.700Z,11.95
2022-10-11T16:16:40.440Z,12.05
2022-10-11T16:21:42.187Z,12.18
2022-10-11T16:26:44.097Z,12.43
2022-10-11T16:31:46.185Z,10.98
2022-10-11T16:36:47.935Z,15.75
2022-10-11T16:41:49.717Z,17.95
2022-10-11T16:46:51.943Z,11.57
2022-10-11T16:51:55.920Z,10.10
2022-10-11T16:56:59.389Z,12.60
2022-10-11T17:02:01.216Z,12.18
2022-10-11T17:07:04.174Z,10.20
2022-10-11T17:12:06.570Z,10.55
2022-10-11T17:17:10.010Z,10.68
2022-10-11T17:22:13.613Z,41.70
2022-10-11T17:27:15.428Z,13.30
2022-10-11T17:32:17.448Z,20.27
2022-10-11T17:37:19.205Z,12.15
2022-10-11T17:42:21.010Z,10.45
2022-10-11T17:47:22.993Z,13.43
2022-10-11T17:52:24.865Z,9.77
2022-10-11T17:57:26.615Z,40.47
2022-10-11T18:02:28.383Z,9.95
2022-10-11T18:07:30.174Z,9.80
2022-10-11T18:12:33.876Z,9.35
2022-10-11T18:17:35.734Z,9.73
2022-10-11T18:22:37.535Z,12.18
2022-10-11T18:27:39.330Z,8.55
2022-10-11T18:32:47.192Z,8.52
2022-10-11T18:37:55.464Z,9.27
2022-10-11T18:42:59.443Z,9.57
2022-10-11T18:48:01.637Z,9.65
2022-10-11T18:53:06.958Z,9.23
2022-10-11T18:58:09.099Z,12.18
2022-10-11T19:03:11.126Z,8.75
2022-10-11T19:08:16.730Z,11.27
2022-10-11T19:13:18.701Z,15.65
2022-10-11T19:18:21.060Z,9.13
2022-10-11T19:23:23.661Z,8.43
2022-10-11T19:28:25.663Z,9.70
2022-10-11T19:33:29.069Z,9.02
2022-10-11T19:38:32.893Z,9.57
2022-10-11T19:43:35.275Z,9.50
2022-10-11T19:48:41.393Z,8.93
2022-10-11T19:53:44.614Z,11.07
2022-10-11T19:58:49.209Z,9.63
2022-10-11T20:03:54.792Z,9.02
2022-10-11T20:09:23.969Z,9.50
2022-10-11T20:14:20.463Z,8.73
2022-10-11T20:19:27.753Z,9.23
2022-10-11T20:24:36.305Z,9.02
2022-10-11T20:29:39.388Z,8.43
2022-10-11T20:34:41.416Z,8.45
2022-10-11T20:39:43.672Z,10.05
2022-10-11T20:44:47.618Z,8.30
2022-10-11T20:49:49.422Z,8.80
2022-10-11T20:54:51.170Z,8.85
2022-10-11T20:59:52.947Z,8.70
2022-10-11T21:04:54.945Z,8.20
2022-10-11T21:09:56.702Z,7.72
2022-10-11T21:14:58.449Z,8.73
2022-10-11T21:20:01.947Z,8.82
2022-10-11T21:25:04.296Z,8.60
2022-10-11T21:30:06.598Z,8.43
2022-10-11T21:35:08.409Z,8.85
2022-10-11T21:40:10.205Z,8.13
2022-10-11T21:45:12.243Z,7.82
2022-10-11T21:50:15.722Z,8.90
2022-10-11T21:55:17.525Z,9.40
2022-10-11T22:00:19.413Z,8.18
2022-10-11T22:05:21.234Z,8.13
2022-10-11T22:10:23.015Z,7.95
2022-10-11T22:15:24.788Z,8.27
2022-10-11T22:20:27.378Z,7.28
2022-10-11T22:25:30.630Z,9.23
2022-10-11T22:30:32.621Z,9.32
2022-10-11T22:35:38.550Z,9.02
2022-10-11T22:40:41.585Z,9.70
2022-10-11T22:45:43.620Z,8.88
2022-10-11T22:50:45.381Z,8.35
2022-10-11T22:55:47.811Z,7.90
2022-10-11T23:00:49.641Z,8.45
2022-10-11T23:05:58.168Z,8.95
2022-10-11T23:11:07.512Z,7.63
2022-10-11T23:16:11.582Z,9.38
2022-10-11T23:21:13.414Z,8.55
2022-10-11T23:26:16.781Z,7.82
2022-10-11T23:31:18.764Z,8.65
2022-10-11T23:36:23.432Z,9.25
2022-10-11T23:41:28.729Z,9.20
2022-10-11T23:46:30.515Z,8.43
2022-10-11T23:51:32.284Z,9.05
2022-10-11T23:56:34.066Z,9.32
